sensor_id;sensor_type;location;lat;lon;timestamp;P1;durP1;ratioP1;P2;durP2;ratioP2
75246;SDS011;63844;50.042;19.224;2023-05-06T00:00:28;5.60;;;3.20;;
75246;SDS011;63844;50.042;19.224;2023-05-06T00:03:11;7.00;;;3.20;;
75246;SDS011;63844;50.042;19.224;2023-05-06T00:05:38;4.80;;;2.00;;
75246;SDS011;63844;50.042;19.224;2023-05-06T00:08:05;4.70;;;2.70;;
75246;SDS011;63844;50.042;19.224;2023-05-06T00:10:31;5.80;;;2.60;;
75246;SDS011;63844;50.042;19.224;2023-05-06T00:12:58;5.60;;;2.90;;
75246;SDS011;63844;50.042;19.224;2023-05-06T00:15:24;6.70;;;2.70;;
75246;SDS011;63844;50.042;19.224;2023-05-06T00:17:51;4.80;;;2.10;;
75246;SDS011;63844;50.042;19.224;2023-05-06T00:20:17;2.70;;;1.40;;
75246;SDS011;63844;50.042;19.224;2023-05-06T00:22:44;4.10;;;2.40;;
75246;SDS011;63844;50.042;19.224;2023-05-06T00:25:10;7.40;;;3.20;;
75246;SDS011;63844;50.042;19.224;2023-05-06T00:27:37;6.80;;;3.30;;
75246;SDS011;63844;50.042;19.224;2023-05-06T00:30:04;3.30;;;1.90;;
75246;SDS011;63844;50.042;19.224;2023-05-06T00:32:31;3.40;;;2.40;;
75246;SDS011;63844;50.042;19.224;2023-05-06T00:34:57;7.40;;;2.60;;
75246;SDS011;63844;50.042;19.224;2023-05-06T00:37:24;4.70;;;2.60;;
75246;SDS011;63844;50.042;19.224;2023-05-06T00:39:50;6.40;;;2.90;;
75246;SDS011;63844;50.042;19.224;2023-05-06T00:42:17;4.10;;;1.70;;
75246;SDS011;63844;50.042;19.224;2023-05-06T00:44:43;5.80;;;3.60;;
75246;SDS011;63844;50.042;19.224;2023-05-06T00:47:10;6.40;;;2.90;;
75246;SDS011;63844;50.042;19.224;2023-05-06T00:49:37;6.00;;;3.80;;
75246;SDS011;63844;50.042;19.224;2023-05-06T00:52:03;3.40;;;2.10;;
75246;SDS011;63844;50.042;19.224;2023-05-06T00:54:30;6.40;;;3.20;;
75246;SDS011;63844;50.042;19.224;2023-05-06T00:56:57;5.70;;;3.30;;
75246;SDS011;63844;50.042;19.224;2023-05-06T00:59:23;6.20;;;3.30;;
75246;SDS011;63844;50.042;19.224;2023-05-06T01:01:50;5.10;;;2.60;;
75246;SDS011;63844;50.042;19.224;2023-05-06T01:04:17;5.90;;;2.80;;
75246;SDS011;63844;50.042;19.224;2023-05-06T01:06:44;5.80;;;3.20;;
75246;SDS011;63844;50.042;19.224;2023-05-06T01:09:25;7.70;;;3.40;;
75246;SDS011;63844;50.042;19.224;2023-05-06T01:12:08;3.30;;;2.20;;
75246;SDS011;63844;50.042;19.224;2023-05-06T01:14:58;4.50;;;2.50;;
75246;SDS011;63844;50.042;19.224;2023-05-06T01:17:35;7.50;;;3.70;;
75246;SDS011;63844;50.042;19.224;2023-05-06T01:20:07;7.80;;;3.60;;
75246;SDS011;63844;50.042;19.224;2023-05-06T01:22:37;6.70;;;4.40;;
75246;SDS011;63844;50.042;19.224;2023-05-06T01:25:04;6.90;;;3.60;;
75246;SDS011;63844;50.042;19.224;2023-05-06T01:27:31;6.80;;;3.40;;
75246;SDS011;63844;50.042;19.224;2023-05-06T01:29:58;8.80;;;3.50;;
75246;SDS011;63844;50.042;19.224;2023-05-06T01:35:17;5.70;;;3.70;;
75246;SDS011;63844;50.042;19.224;2023-05-06T01:38:09;6.30;;;4.30;;
75246;SDS011;63844;50.042;19.224;2023-05-06T01:40:57;8.80;;;4.10;;
75246;SDS011;63844;50.042;19.224;2023-05-06T01:43:27;8.90;;;4.20;;
75246;SDS011;63844;50.042;19.224;2023-05-06T01:45:56;8.60;;;4.90;;
75246;SDS011;63844;50.042;19.224;2023-05-06T01:48:26;4.60;;;2.90;;
75246;SDS011;63844;50.042;19.224;2023-05-06T01:50:55;6.10;;;3.40;;
75246;SDS011;63844;50.042;19.224;2023-05-06T01:53:22;11.10;;;4.50;;
75246;SDS011;63844;50.042;19.224;2023-05-06T01:55:48;6.50;;;4.00;;
75246;SDS011;63844;50.042;19.224;2023-05-06T01:58:14;7.90;;;4.00;;
75246;SDS011;63844;50.042;19.224;2023-05-06T02:03:08;5.60;;;3.20;;
75246;SDS011;63844;50.042;19.224;2023-05-06T02:05:34;6.50;;;2.60;;
75246;SDS011;63844;50.042;19.224;2023-05-06T02:08:00;6.80;;;3.90;;
75246;SDS011;63844;50.042;19.224;2023-05-06T02:10:27;5.30;;;2.90;;
75246;SDS011;63844;50.042;19.224;2023-05-06T02:12:53;8.70;;;4.30;;
75246;SDS011;63844;50.042;19.224;2023-05-06T02:15:20;7.10;;;3.50;;
75246;SDS011;63844;50.042;19.224;2023-05-06T02:17:46;6.70;;;4.10;;
75246;SDS011;63844;50.042;19.224;2023-05-06T02:20:13;5.20;;;3.80;;
75246;SDS011;63844;50.042;19.224;2023-05-06T02:25:06;4.30;;;2.80;;
75246;SDS011;63844;50.042;19.224;2023-05-06T02:27:33;9.10;;;3.80;;
75246;SDS011;63844;50.042;19.224;2023-05-06T02:30:00;4.20;;;2.90;;
75246;SDS011;63844;50.042;19.224;2023-05-06T02:32:27;6.10;;;3.40;;
75246;SDS011;63844;50.042;19.224;2023-05-06T02:34:54;5.80;;;3.40;;
75246;SDS011;63844;50.042;19.224;2023-05-06T02:37:20;9.10;;;3.90;;
75246;SDS011;63844;50.042;19.224;2023-05-06T02:39:47;5.90;;;3.90;;
75246;SDS011;63844;50.042;19.224;2023-05-06T02:42:13;6.80;;;4.00;;
75246;SDS011;63844;50.042;19.224;2023-05-06T02:44:41;6.60;;;2.40;;
75246;SDS011;63844;50.042;19.224;2023-05-06T02:47:07;6.70;;;3.60;;
75246;SDS011;63844;50.042;19.224;2023-05-06T02:49:34;4.20;;;3.10;;
75246;SDS011;63844;50.042;19.224;2023-05-06T02:52:00;4.30;;;2.90;;
75246;SDS011;63844;50.042;19.224;2023-05-06T02:54:27;4.70;;;3.30;;
75246;SDS011;63844;50.042;19.224;2023-05-06T02:56:53;4.30;;;2.20;;
75246;SDS011;63844;50.042;19.224;2023-05-06T02:59:20;6.40;;;3.70;;
75246;SDS011;63844;50.042;19.224;2023-05-06T03:01:47;10.00;;;3.80;;
75246;SDS011;63844;50.042;19.224;2023-05-06T03:04:13;8.90;;;3.90;;
75246;SDS011;63844;50.042;19.224;2023-05-06T03:06:40;3.20;;;1.80;;
75246;SDS011;63844;50.042;19.224;2023-05-06T03:09:06;5.20;;;2.80;;
75246;SDS011;63844;50.042;19.224;2023-05-06T03:11:33;8.20;;;3.70;;
75246;SDS011;63844;50.042;19.224;2023-05-06T03:14:00;4.10;;;2.00;;
75246;SDS011;63844;50.042;19.224;2023-05-06T03:16:27;4.00;;;1.80;;
75246;SDS011;63844;50.042;19.224;2023-05-06T03:18:53;8.10;;;3.60;;
75246;SDS011;63844;50.042;19.224;2023-05-06T03:21:20;9.40;;;3.40;;
75246;SDS011;63844;50.042;19.224;2023-05-06T03:23:46;6.20;;;3.60;;
75246;SDS011;63844;50.042;19.224;2023-05-06T03:26:12;6.90;;;3.40;;
75246;SDS011;63844;50.042;19.224;2023-05-06T03:28:40;5.70;;;3.30;;
75246;SDS011;63844;50.042;19.224;2023-05-06T03:31:08;7.40;;;4.10;;
75246;SDS011;63844;50.042;19.224;2023-05-06T03:33:34;5.80;;;3.60;;
75246;SDS011;63844;50.042;19.224;2023-05-06T03:36:02;4.90;;;2.70;;
75246;SDS011;63844;50.042;19.224;2023-05-06T03:38:29;4.90;;;3.20;;
75246;SDS011;63844;50.042;19.224;2023-05-06T03:40:55;5.60;;;3.50;;
75246;SDS011;63844;50.042;19.224;2023-05-06T03:43:22;6.30;;;3.60;;
75246;SDS011;63844;50.042;19.224;2023-05-06T03:45:48;4.10;;;2.40;;
75246;SDS011;63844;50.042;19.224;2023-05-06T03:48:15;4.30;;;2.70;;
75246;SDS011;63844;50.042;19.224;2023-05-06T03:53:08;6.90;;;3.70;;
75246;SDS011;63844;50.042;19.224;2023-05-06T03:55:35;6.30;;;3.60;;
75246;SDS011;63844;50.042;19.224;2023-05-06T03:58:01;7.80;;;3.80;;
75246;SDS011;63844;50.042;19.224;2023-05-06T04:00:27;3.00;;;1.70;;
75246;SDS011;63844;50.042;19.224;2023-05-06T04:02:54;7.50;;;4.30;;
75246;SDS011;63844;50.042;19.224;2023-05-06T04:05:20;5.40;;;2.60;;
75246;SDS011;63844;50.042;19.224;2023-05-06T04:07:47;3.70;;;2.70;;
75246;SDS011;63844;50.042;19.224;2023-05-06T04:10:13;5.70;;;3.20;;
75246;SDS011;63844;50.042;19.224;2023-05-06T04:12:40;8.00;;;4.40;;
75246;SDS011;63844;50.042;19.224;2023-05-06T04:15:06;4.70;;;2.50;;
75246;SDS011;63844;50.042;19.224;2023-05-06T04:17:33;9.40;;;4.20;;
75246;SDS011;63844;50.042;19.224;2023-05-06T04:20:00;3.80;;;2.00;;
75246;SDS011;63844;50.042;19.224;2023-05-06T04:22:32;7.20;;;4.00;;
75246;SDS011;63844;50.042;19.224;2023-05-06T04:24:58;7.20;;;4.10;;
75246;SDS011;63844;50.042;19.224;2023-05-06T04:27:28;6.80;;;3.30;;
75246;SDS011;63844;50.042;19.224;2023-05-06T04:29:55;5.60;;;3.30;;
75246;SDS011;63844;50.042;19.224;2023-05-06T04:32:22;5.70;;;3.10;;
75246;SDS011;63844;50.042;19.224;2023-05-06T04:34:50;6.40;;;3.70;;
75246;SDS011;63844;50.042;19.224;2023-05-06T04:37:18;11.30;;;3.80;;
75246;SDS011;63844;50.042;19.224;2023-05-06T04:39:46;6.60;;;3.60;;
75246;SDS011;63844;50.042;19.224;2023-05-06T04:42:12;6.40;;;3.40;;
75246;SDS011;63844;50.042;19.224;2023-05-06T04:44:39;6.30;;;3.00;;
75246;SDS011;63844;50.042;19.224;2023-05-06T04:47:07;5.30;;;2.30;;
75246;SDS011;63844;50.042;19.224;2023-05-06T04:49:33;5.90;;;3.90;;
75246;SDS011;63844;50.042;19.224;2023-05-06T04:52:00;3.20;;;1.80;;
75246;SDS011;63844;50.042;19.224;2023-05-06T04:54:27;3.50;;;1.90;;
75246;SDS011;63844;50.042;19.224;2023-05-06T04:56:54;7.30;;;3.70;;
75246;SDS011;63844;50.042;19.224;2023-05-06T04:59:20;7.80;;;3.50;;
75246;SDS011;63844;50.042;19.224;2023-05-06T05:01:47;4.60;;;3.70;;
75246;SDS011;63844;50.042;19.224;2023-05-06T05:04:13;6.50;;;3.90;;
75246;SDS011;63844;50.042;19.224;2023-05-06T05:06:40;4.00;;;2.70;;
75246;SDS011;63844;50.042;19.224;2023-05-06T05:09:06;6.30;;;4.00;;
75246;SDS011;63844;50.042;19.224;2023-05-06T05:14:02;6.60;;;3.90;;
75246;SDS011;63844;50.042;19.224;2023-05-06T05:16:28;6.60;;;3.40;;
75246;SDS011;63844;50.042;19.224;2023-05-06T05:21:21;6.30;;;3.80;;
75246;SDS011;63844;50.042;19.224;2023-05-06T05:23:48;5.60;;;3.20;;
75246;SDS011;63844;50.042;19.224;2023-05-06T05:26:14;6.30;;;3.10;;
75246;SDS011;63844;50.042;19.224;2023-05-06T05:28:40;9.00;;;3.60;;
75246;SDS011;63844;50.042;19.224;2023-05-06T05:33:34;5.90;;;3.40;;
75246;SDS011;63844;50.042;19.224;2023-05-06T05:36:00;6.90;;;4.10;;
75246;SDS011;63844;50.042;19.224;2023-05-06T05:38:27;6.00;;;3.70;;
75246;SDS011;63844;50.042;19.224;2023-05-06T05:40:54;6.20;;;3.20;;
75246;SDS011;63844;50.042;19.224;2023-05-06T05:43:20;6.60;;;2.10;;
75246;SDS011;63844;50.042;19.224;2023-05-06T05:45:47;8.70;;;3.90;;
75246;SDS011;63844;50.042;19.224;2023-05-06T05:48:14;7.00;;;4.80;;
75246;SDS011;63844;50.042;19.224;2023-05-06T05:50:40;6.10;;;3.60;;
75246;SDS011;63844;50.042;19.224;2023-05-06T05:53:07;7.40;;;4.60;;
75246;SDS011;63844;50.042;19.224;2023-05-06T05:55:33;7.70;;;4.10;;
75246;SDS011;63844;50.042;19.224;2023-05-06T05:58:00;7.10;;;3.00;;
75246;SDS011;63844;50.042;19.224;2023-05-06T06:00:26;5.90;;;4.20;;
75246;SDS011;63844;50.042;19.224;2023-05-06T06:02:53;6.90;;;3.80;;
75246;SDS011;63844;50.042;19.224;2023-05-06T06:05:19;5.40;;;3.20;;
75246;SDS011;63844;50.042;19.224;2023-05-06T06:07:46;6.20;;;4.00;;
75246;SDS011;63844;50.042;19.224;2023-05-06T06:10:12;6.10;;;2.50;;
75246;SDS011;63844;50.042;19.224;2023-05-06T06:12:40;7.20;;;3.90;;
75246;SDS011;63844;50.042;19.224;2023-05-06T06:15:09;5.40;;;3.30;;
75246;SDS011;63844;50.042;19.224;2023-05-06T06:17:36;10.10;;;4.00;;
75246;SDS011;63844;50.042;19.224;2023-05-06T06:20:02;8.20;;;5.10;;
75246;SDS011;63844;50.042;19.224;2023-05-06T06:22:30;7.30;;;4.40;;
75246;SDS011;63844;50.042;19.224;2023-05-06T06:24:56;8.60;;;4.70;;
75246;SDS011;63844;50.042;19.224;2023-05-06T06:27:23;6.20;;;4.20;;
75246;SDS011;63844;50.042;19.224;2023-05-06T06:29:49;5.80;;;3.00;;
75246;SDS011;63844;50.042;19.224;2023-05-06T06:32:16;6.30;;;3.10;;
75246;SDS011;63844;50.042;19.224;2023-05-06T06:34:42;3.60;;;1.90;;
75246;SDS011;63844;50.042;19.224;2023-05-06T06:39:36;8.10;;;4.30;;
75246;SDS011;63844;50.042;19.224;2023-05-06T06:42:02;7.90;;;4.60;;
75246;SDS011;63844;50.042;19.224;2023-05-06T06:44:29;6.40;;;3.90;;
75246;SDS011;63844;50.042;19.224;2023-05-06T06:49:22;7.60;;;4.20;;
75246;SDS011;63844;50.042;19.224;2023-05-06T06:51:50;6.30;;;4.30;;
75246;SDS011;63844;50.042;19.224;2023-05-06T06:54:16;5.00;;;3.40;;
75246;SDS011;63844;50.042;19.224;2023-05-06T06:59:09;6.80;;;3.90;;
75246;SDS011;63844;50.042;19.224;2023-05-06T07:01:36;7.20;;;4.40;;
75246;SDS011;63844;50.042;19.224;2023-05-06T07:04:02;10.70;;;5.70;;
75246;SDS011;63844;50.042;19.224;2023-05-06T07:08:55;14.80;;;7.00;;
75246;SDS011;63844;50.042;19.224;2023-05-06T07:11:22;14.60;;;6.00;;
75246;SDS011;63844;50.042;19.224;2023-05-06T07:13:48;10.70;;;5.20;;
75246;SDS011;63844;50.042;19.224;2023-05-06T07:18:41;9.60;;;4.80;;
75246;SDS011;63844;50.042;19.224;2023-05-06T07:21:08;12.70;;;5.80;;
75246;SDS011;63844;50.042;19.224;2023-05-06T07:23:34;9.20;;;4.90;;
75246;SDS011;63844;50.042;19.224;2023-05-06T07:26:01;7.50;;;4.20;;
75246;SDS011;63844;50.042;19.224;2023-05-06T07:28:27;6.60;;;4.10;;
75246;SDS011;63844;50.042;19.224;2023-05-06T07:30:54;7.80;;;3.80;;
75246;SDS011;63844;50.042;19.224;2023-05-06T07:33:20;7.70;;;4.10;;
75246;SDS011;63844;50.042;19.224;2023-05-06T07:35:46;8.50;;;5.20;;
75246;SDS011;63844;50.042;19.224;2023-05-06T07:38:13;7.60;;;3.40;;
75246;SDS011;63844;50.042;19.224;2023-05-06T07:40:39;7.20;;;4.40;;
75246;SDS011;63844;50.042;19.224;2023-05-06T07:43:06;8.80;;;4.80;;
75246;SDS011;63844;50.042;19.224;2023-05-06T07:45:33;8.00;;;4.10;;
75246;SDS011;63844;50.042;19.224;2023-05-06T07:47:59;6.20;;;3.60;;
75246;SDS011;63844;50.042;19.224;2023-05-06T07:50:26;5.60;;;3.10;;
75246;SDS011;63844;50.042;19.224;2023-05-06T07:52:53;7.40;;;4.60;;
75246;SDS011;63844;50.042;19.224;2023-05-06T07:55:19;10.30;;;4.50;;
75246;SDS011;63844;50.042;19.224;2023-05-06T08:00:12;6.20;;;3.70;;
75246;SDS011;63844;50.042;19.224;2023-05-06T08:02:39;5.90;;;3.70;;
75246;SDS011;63844;50.042;19.224;2023-05-06T08:05:09;6.50;;;3.70;;
75246;SDS011;63844;50.042;19.224;2023-05-06T08:07:36;4.70;;;2.60;;
75246;SDS011;63844;50.042;19.224;2023-05-06T08:12:29;9.10;;;4.70;;
75246;SDS011;63844;50.042;19.224;2023-05-06T08:17:22;7.10;;;4.80;;
75246;SDS011;63844;50.042;19.224;2023-05-06T08:19:48;3.90;;;2.90;;
75246;SDS011;63844;50.042;19.224;2023-05-06T08:24:41;8.30;;;4.00;;
75246;SDS011;63844;50.042;19.224;2023-05-06T08:27:08;7.00;;;3.80;;
75246;SDS011;63844;50.042;19.224;2023-05-06T08:32:01;5.90;;;3.90;;
75246;SDS011;63844;50.042;19.224;2023-05-06T08:34:27;11.30;;;4.80;;
75246;SDS011;63844;50.042;19.224;2023-05-06T08:36:54;7.80;;;5.00;;
75246;SDS011;63844;50.042;19.224;2023-05-06T08:39:21;11.10;;;6.30;;
75246;SDS011;63844;50.042;19.224;2023-05-06T08:44:16;7.80;;;4.70;;
75246;SDS011;63844;50.042;19.224;2023-05-06T08:46:45;6.10;;;4.30;;
75246;SDS011;63844;50.042;19.224;2023-05-06T08:49:12;11.00;;;5.20;;
75246;SDS011;63844;50.042;19.224;2023-05-06T08:54:09;6.80;;;4.70;;
75246;SDS011;63844;50.042;19.224;2023-05-06T08:56:37;6.30;;;4.30;;
75246;SDS011;63844;50.042;19.224;2023-05-06T08:59:08;9.60;;;4.80;;
75246;SDS011;63844;50.042;19.224;2023-05-06T09:04:02;7.30;;;4.30;;
75246;SDS011;63844;50.042;19.224;2023-05-06T09:06:32;5.20;;;3.50;;
75246;SDS011;63844;50.042;19.224;2023-05-06T09:08:59;6.80;;;4.30;;
75246;SDS011;63844;50.042;19.224;2023-05-06T09:11:26;11.30;;;6.00;;
75246;SDS011;63844;50.042;19.224;2023-05-06T09:14:10;5.10;;;3.10;;
75246;SDS011;63844;50.042;19.224;2023-05-06T09:16:40;5.70;;;3.20;;
75246;SDS011;63844;50.042;19.224;2023-05-06T09:19:08;9.20;;;4.80;;
75246;SDS011;63844;50.042;19.224;2023-05-06T09:21:35;9.20;;;5.90;;
75246;SDS011;63844;50.042;19.224;2023-05-06T09:24:07;9.80;;;5.00;;
75246;SDS011;63844;50.042;19.224;2023-05-06T09:26:35;7.40;;;3.90;;
75246;SDS011;63844;50.042;19.224;2023-05-06T09:29:04;6.70;;;5.00;;
75246;SDS011;63844;50.042;19.224;2023-05-06T09:31:31;9.10;;;4.60;;
75246;SDS011;63844;50.042;19.224;2023-05-06T09:33:58;7.30;;;3.90;;
75246;SDS011;63844;50.042;19.224;2023-05-06T09:36:26;6.10;;;4.60;;
75246;SDS011;63844;50.042;19.224;2023-05-06T09:38:54;8.00;;;4.50;;
75246;SDS011;63844;50.042;19.224;2023-05-06T09:41:22;6.50;;;3.40;;
75246;SDS011;63844;50.042;19.224;2023-05-06T09:43:51;7.20;;;4.30;;
75246;SDS011;63844;50.042;19.224;2023-05-06T09:46:20;6.30;;;3.80;;
75246;SDS011;63844;50.042;19.224;2023-05-06T09:48:48;9.40;;;4.60;;
75246;SDS011;63844;50.042;19.224;2023-05-06T09:51:16;8.70;;;5.10;;
75246;SDS011;63844;50.042;19.224;2023-05-06T09:53:43;9.80;;;4.40;;
75246;SDS011;63844;50.042;19.224;2023-05-06T09:56:13;4.90;;;2.70;;
75246;SDS011;63844;50.042;19.224;2023-05-06T09:58:41;6.90;;;4.20;;
75246;SDS011;63844;50.042;19.224;2023-05-06T10:01:08;9.40;;;4.80;;
75246;SDS011;63844;50.042;19.224;2023-05-06T10:03:38;13.40;;;5.60;;
75246;SDS011;63844;50.042;19.224;2023-05-06T10:06:07;7.10;;;5.20;;
75246;SDS011;63844;50.042;19.224;2023-05-06T10:08:36;10.20;;;5.30;;
75246;SDS011;63844;50.042;19.224;2023-05-06T10:11:06;13.00;;;6.70;;
75246;SDS011;63844;50.042;19.224;2023-05-06T10:13:34;7.90;;;4.20;;
75246;SDS011;63844;50.042;19.224;2023-05-06T10:16:02;8.40;;;6.20;;
75246;SDS011;63844;50.042;19.224;2023-05-06T10:18:30;11.00;;;7.00;;
75246;SDS011;63844;50.042;19.224;2023-05-06T10:20:59;11.80;;;7.10;;
75246;SDS011;63844;50.042;19.224;2023-05-06T10:26:10;10.30;;;3.30;;
75246;SDS011;63844;50.042;19.224;2023-05-06T10:28:39;8.90;;;5.60;;
75246;SDS011;63844;50.042;19.224;2023-05-06T10:31:09;12.30;;;7.90;;
75246;SDS011;63844;50.042;19.224;2023-05-06T10:33:39;8.10;;;4.80;;
75246;SDS011;63844;50.042;19.224;2023-05-06T10:36:12;11.50;;;7.20;;
75246;SDS011;63844;50.042;19.224;2023-05-06T10:38:44;10.70;;;6.70;;
75246;SDS011;63844;50.042;19.224;2023-05-06T10:41:14;12.40;;;6.70;;
75246;SDS011;63844;50.042;19.224;2023-05-06T10:43:42;8.10;;;5.10;;
75246;SDS011;63844;50.042;19.224;2023-05-06T10:46:16;9.60;;;5.90;;
75246;SDS011;63844;50.042;19.224;2023-05-06T10:51:29;12.20;;;7.40;;
75246;SDS011;63844;50.042;19.224;2023-05-06T10:56:31;10.60;;;6.00;;
75246;SDS011;63844;50.042;19.224;2023-05-06T10:59:09;9.00;;;5.70;;
75246;SDS011;63844;50.042;19.224;2023-05-06T11:01:38;12.70;;;6.60;;
75246;SDS011;63844;50.042;19.224;2023-05-06T11:06:52;8.70;;;6.10;;
75246;SDS011;63844;50.042;19.224;2023-05-06T11:09:22;7.60;;;5.00;;
75246;SDS011;63844;50.042;19.224;2023-05-06T11:14:33;10.60;;;6.10;;
75246;SDS011;63844;50.042;19.224;2023-05-06T11:17:27;7.10;;;4.40;;
75246;SDS011;63844;50.042;19.224;2023-05-06T11:20:19;9.80;;;6.00;;
75246;SDS011;63844;50.042;19.224;2023-05-06T11:22:46;11.70;;;6.90;;
75246;SDS011;63844;50.042;19.224;2023-05-06T11:25:13;12.10;;;6.60;;
75246;SDS011;63844;50.042;19.224;2023-05-06T11:30:11;12.80;;;7.30;;
75246;SDS011;63844;50.042;19.224;2023-05-06T11:32:38;8.50;;;5.40;;
75246;SDS011;63844;50.042;19.224;2023-05-06T11:35:07;9.30;;;5.50;;
75246;SDS011;63844;50.042;19.224;2023-05-06T11:37:34;6.10;;;4.00;;
75246;SDS011;63844;50.042;19.224;2023-05-06T11:42:27;12.90;;;8.90;;
75246;SDS011;63844;50.042;19.224;2023-05-06T11:44:54;14.60;;;7.40;;
75246;SDS011;63844;50.042;19.224;2023-05-06T11:47:21;21.00;;;11.00;;
75246;SDS011;63844;50.042;19.224;2023-05-06T11:49:50;16.10;;;10.40;;
75246;SDS011;63844;50.042;19.224;2023-05-06T11:52:18;14.80;;;9.00;;
75246;SDS011;63844;50.042;19.224;2023-05-06T11:54:46;15.90;;;10.70;;
75246;SDS011;63844;50.042;19.224;2023-05-06T11:59:39;12.80;;;6.50;;
75246;SDS011;63844;50.042;19.224;2023-05-06T12:02:07;9.70;;;7.00;;
75246;SDS011;63844;50.042;19.224;2023-05-06T12:04:39;12.00;;;6.60;;
75246;SDS011;63844;50.042;19.224;2023-05-06T12:07:08;7.30;;;4.50;;
75246;SDS011;63844;50.042;19.224;2023-05-06T12:09:36;8.90;;;6.00;;
75246;SDS011;63844;50.042;19.224;2023-05-06T12:12:06;13.40;;;5.60;;
75246;SDS011;63844;50.042;19.224;2023-05-06T12:14:34;12.80;;;7.40;;
75246;SDS011;63844;50.042;19.224;2023-05-06T12:17:02;8.00;;;5.30;;
75246;SDS011;63844;50.042;19.224;2023-05-06T12:19:30;10.20;;;7.30;;
75246;SDS011;63844;50.042;19.224;2023-05-06T12:22:13;16.30;;;11.20;;
75246;SDS011;63844;50.042;19.224;2023-05-06T12:24:45;15.30;;;10.40;;
75246;SDS011;63844;50.042;19.224;2023-05-06T12:27:12;9.90;;;5.70;;
75246;SDS011;63844;50.042;19.224;2023-05-06T12:29:39;14.40;;;7.30;;
75246;SDS011;63844;50.042;19.224;2023-05-06T12:32:16;15.20;;;9.10;;
75246;SDS011;63844;50.042;19.224;2023-05-06T12:34:43;14.00;;;9.80;;
75246;SDS011;63844;50.042;19.224;2023-05-06T12:37:09;9.40;;;6.40;;
75246;SDS011;63844;50.042;19.224;2023-05-06T12:39:36;13.00;;;7.40;;
75246;SDS011;63844;50.042;19.224;2023-05-06T12:42:04;11.50;;;6.30;;
75246;SDS011;63844;50.042;19.224;2023-05-06T12:44:32;12.60;;;8.50;;
75246;SDS011;63844;50.042;19.224;2023-05-06T12:47:02;16.90;;;11.20;;
75246;SDS011;63844;50.042;19.224;2023-05-06T12:54:29;13.80;;;8.80;;
75246;SDS011;63844;50.042;19.224;2023-05-06T12:56:56;13.00;;;7.40;;
75246;SDS011;63844;50.042;19.224;2023-05-06T12:59:23;20.30;;;11.20;;
75246;SDS011;63844;50.042;19.224;2023-05-06T13:01:50;21.00;;;11.10;;
75246;SDS011;63844;50.042;19.224;2023-05-06T13:06:43;19.30;;;9.00;;
75246;SDS011;63844;50.042;19.224;2023-05-06T13:09:11;19.70;;;11.90;;
75246;SDS011;63844;50.042;19.224;2023-05-06T13:11:38;18.50;;;10.40;;
75246;SDS011;63844;50.042;19.224;2023-05-06T13:14:04;12.90;;;8.80;;
75246;SDS011;63844;50.042;19.224;2023-05-06T13:16:31;13.90;;;9.40;;
75246;SDS011;63844;50.042;19.224;2023-05-06T13:18:57;16.20;;;9.00;;
75246;SDS011;63844;50.042;19.224;2023-05-06T13:21:24;12.60;;;7.90;;
75246;SDS011;63844;50.042;19.224;2023-05-06T13:23:52;13.60;;;7.60;;
75246;SDS011;63844;50.042;19.224;2023-05-06T13:26:18;14.20;;;9.10;;
75246;SDS011;63844;50.042;19.224;2023-05-06T13:28:45;9.30;;;6.50;;
75246;SDS011;63844;50.042;19.224;2023-05-06T13:31:11;16.60;;;10.70;;
75246;SDS011;63844;50.042;19.224;2023-05-06T13:33:37;15.40;;;10.20;;
75246;SDS011;63844;50.042;19.224;2023-05-06T13:36:04;11.00;;;6.90;;
75246;SDS011;63844;50.042;19.224;2023-05-06T13:38:31;13.20;;;9.00;;
75246;SDS011;63844;50.042;19.224;2023-05-06T13:40:58;19.60;;;11.50;;
75246;SDS011;63844;50.042;19.224;2023-05-06T13:45:51;18.40;;;10.40;;
75246;SDS011;63844;50.042;19.224;2023-05-06T13:48:18;18.10;;;11.40;;
75246;SDS011;63844;50.042;19.224;2023-05-06T13:50:45;17.70;;;10.90;;
75246;SDS011;63844;50.042;19.224;2023-05-06T13:53:13;23.40;;;12.50;;
75246;SDS011;63844;50.042;19.224;2023-05-06T13:55:40;20.20;;;12.40;;
75246;SDS011;63844;50.042;19.224;2023-05-06T13:58:08;20.70;;;12.90;;
75246;SDS011;63844;50.042;19.224;2023-05-06T14:00:34;22.40;;;14.00;;
75246;SDS011;63844;50.042;19.224;2023-05-06T14:03:01;20.40;;;14.30;;
75246;SDS011;63844;50.042;19.224;2023-05-06T14:07:54;26.40;;;16.50;;
75246;SDS011;63844;50.042;19.224;2023-05-06T14:10:21;26.50;;;16.00;;
75246;SDS011;63844;50.042;19.224;2023-05-06T14:12:47;22.80;;;15.30;;
75246;SDS011;63844;50.042;19.224;2023-05-06T14:15:14;27.60;;;16.40;;
75246;SDS011;63844;50.042;19.224;2023-05-06T14:20:07;24.30;;;15.20;;
75246;SDS011;63844;50.042;19.224;2023-05-06T14:22:40;25.10;;;15.60;;
75246;SDS011;63844;50.042;19.224;2023-05-06T14:25:07;23.40;;;15.10;;
75246;SDS011;63844;50.042;19.224;2023-05-06T14:27:34;23.50;;;15.10;;
75246;SDS011;63844;50.042;19.224;2023-05-06T14:30:01;21.90;;;14.80;;
75246;SDS011;63844;50.042;19.224;2023-05-06T14:32:30;26.30;;;15.90;;
75246;SDS011;63844;50.042;19.224;2023-05-06T14:34:58;25.60;;;16.20;;
75246;SDS011;63844;50.042;19.224;2023-05-06T14:37:24;27.40;;;18.40;;
75246;SDS011;63844;50.042;19.224;2023-05-06T14:39:51;25.10;;;16.30;;
75246;SDS011;63844;50.042;19.224;2023-05-06T14:44:44;21.70;;;15.30;;
75246;SDS011;63844;50.042;19.224;2023-05-06T14:47:13;22.20;;;14.60;;
75246;SDS011;63844;50.042;19.224;2023-05-06T14:52:06;22.10;;;15.60;;
75246;SDS011;63844;50.042;19.224;2023-05-06T14:54:33;19.20;;;15.10;;
75246;SDS011;63844;50.042;19.224;2023-05-06T14:59:28;13.40;;;9.30;;
75246;SDS011;63844;50.042;19.224;2023-05-06T15:04:21;16.10;;;11.00;;
75246;SDS011;63844;50.042;19.224;2023-05-06T15:09:14;18.60;;;12.00;;
75246;SDS011;63844;50.042;19.224;2023-05-06T15:11:41;16.10;;;11.20;;
75246;SDS011;63844;50.042;19.224;2023-05-06T15:16:34;17.90;;;11.00;;
75246;SDS011;63844;50.042;19.224;2023-05-06T15:19:01;17.70;;;11.50;;
75246;SDS011;63844;50.042;19.224;2023-05-06T15:23:53;14.40;;;10.30;;
75246;SDS011;63844;50.042;19.224;2023-05-06T15:26:21;19.00;;;12.90;;
75246;SDS011;63844;50.042;19.224;2023-05-06T15:28:48;19.40;;;13.70;;
75246;SDS011;63844;50.042;19.224;2023-05-06T15:33:40;15.20;;;11.00;;
75246;SDS011;63844;50.042;19.224;2023-05-06T15:36:07;17.30;;;12.90;;
75246;SDS011;63844;50.042;19.224;2023-05-06T15:41:18;12.70;;;9.00;;
75246;SDS011;63844;50.042;19.224;2023-05-06T15:43:45;17.50;;;10.10;;
75246;SDS011;63844;50.042;19.224;2023-05-06T15:46:12;15.30;;;11.80;;
75246;SDS011;63844;50.042;19.224;2023-05-06T15:48:38;12.70;;;10.00;;
75246;SDS011;63844;50.042;19.224;2023-05-06T15:51:05;15.50;;;10.90;;
75246;SDS011;63844;50.042;19.224;2023-05-06T15:53:31;12.10;;;10.00;;
75246;SDS011;63844;50.042;19.224;2023-05-06T15:55:58;12.00;;;9.40;;
75246;SDS011;63844;50.042;19.224;2023-05-06T15:58:24;11.60;;;9.30;;
75246;SDS011;63844;50.042;19.224;2023-05-06T16:00:51;11.70;;;9.20;;
75246;SDS011;63844;50.042;19.224;2023-05-06T16:03:17;11.40;;;9.10;;
75246;SDS011;63844;50.042;19.224;2023-05-06T16:05:43;9.50;;;8.30;;
75246;SDS011;63844;50.042;19.224;2023-05-06T16:08:10;11.70;;;8.90;;
75246;SDS011;63844;50.042;19.224;2023-05-06T16:10:37;10.90;;;9.70;;
75246;SDS011;63844;50.042;19.224;2023-05-06T16:13:04;9.20;;;7.70;;
75246;SDS011;63844;50.042;19.224;2023-05-06T16:15:30;10.10;;;7.90;;
75246;SDS011;63844;50.042;19.224;2023-05-06T16:17:56;11.90;;;8.20;;